Time;durP1;ratioP1;P1;durP2;ratioP2;P2;SDS_P1;SDS_P2;PMS_P1;PMS_P2;Temp;Humidity;BMP_temperature;BMP_pressure;BME280_temperature;BME280_humidity;BME280_pressure;Samples;Min_cycle;Max_cycle;Signal;HPM_P1;HPM_P2
2021/05/04 00:00:53;;;;;;;9.35;4.90;;;;;;;;;;5066126;28;20467;-63
2021/05/04 00:03:20;;;;;;;10.23;4.70;;;;;;;;;;5066153;28;20079;-64
2021/05/04 00:05:48;;;;;;;7.60;4.32;;;;;;;;;;5067689;28;20098;-62
2021/05/04 00:08:15;;;;;;;6.57;4.78;;;;;;;;;;5067154;28;20243;-63
2021/05/04 00:10:43;;;;;;;7.70;4.25;;;;;;;;;;5067793;28;20420;-63
2021/05/04 00:13:11;;;;;;;8.40;5.43;;;;;;;;;;5070342;28;20048;-64
2021/05/04 00:15:39;;;;;;;8.70;4.78;;;;;;;;;;5069302;28;20123;-63
2021/05/04 00:18:07;;;;;;;6.03;4.40;;;;;;;;;;5068865;28;20112;-64
2021/05/04 00:20:35;;;;;;;10.13;5.57;;;;;;;;;;5067400;28;20051;-64
2021/05/04 00:23:03;;;;;;;14.15;4.80;;;;;;;;;;5064901;28;20133;-64
2021/05/04 00:25:30;;;;;;;6.38;4.18;;;;;;;;;;5066921;28;20056;-64
2021/05/04 00:27:57;;;;;;;7.78;4.25;;;;;;;;;;5066542;28;20138;-64
2021/05/04 00:30:25;;;;;;;7.35;3.95;;;;;;;;;;5070629;28;20106;-63
2021/05/04 00:32:52;;;;;;;8.05;4.22;;;;;;;;;;5065923;28;20076;-63
2021/05/04 00:35:20;;;;;;;8.63;3.88;;;;;;;;;;5068163;28;20040;-63
2021/05/04 00:37:48;;;;;;;8.35;4.13;;;;;;;;;;5068982;28;20109;-63
2021/05/04 00:40:16;;;;;;;4.80;3.50;;;;;;;;;;5067700;28;20044;-64
2021/05/04 00:42:43;;;;;;;7.95;3.67;;;;;;;;;;5060218;28;20411;-63
2021/05/04 00:45:26;;;;;;;7.38;4.20;;;;;;;;;;5065703;28;20052;-63
2021/05/04 00:47:53;;;;;;;6.97;4.03;;;;;;;;;;5069921;28;20058;-62
2021/05/04 00:50:21;;;;;;;8.35;3.75;;;;;;;;;;5069499;28;20122;-63
2021/05/04 00:52:49;;;;;;;8.55;4.35;;;;;;;;;;5070237;28;20131;-62
2021/05/04 00:55:16;;;;;;;10.30;4.50;;;;;;;;;;5062711;28;20137;-63
2021/05/04 00:57:44;;;;;;;9.43;4.28;;;;;;;;;;5067861;28;20375;-62
2021/05/04 01:00:12;;;;;;;6.82;3.53;;;;;;;;;;5063533;28;20133;-62
2021/05/04 01:02:42;;;;;;;7.65;3.60;;;;;;;;;;5070038;28;20048;-65
2021/05/04 01:05:10;;;;;;;8.45;3.63;;;;;;;;;;5053808;22;20081;-58
2021/05/04 01:07:38;;;;;;;8.80;3.95;;;;;;;;;;5032131;28;20045;-59
2021/05/04 01:10:06;;;;;;;6.13;3.50;;;;;;;;;;5032900;28;20128;-58
2021/05/04 01:12:33;;;;;;;5.68;3.83;;;;;;;;;;5030551;28;20046;-59
2021/05/04 01:15:01;;;;;;;5.38;3.33;;;;;;;;;;5028664;28;20050;-58
2021/05/04 01:17:30;;;;;;;4.60;3.40;;;;;;;;;;5026408;28;20154;-59
2021/05/04 01:19:57;;;;;;;7.20;3.92;;;;;;;;;;5026734;28;20052;-59
2021/05/04 01:22:26;;;;;;;5.88;3.20;;;;;;;;;;5024727;28;20053;-59
2021/05/04 01:24:53;;;;;;;5.45;3.30;;;;;;;;;;5019272;28;20116;-58
2021/05/04 01:27:20;;;;;;;3.78;2.97;;;;;;;;;;5023671;28;20343;-58
2021/05/04 01:29:48;;;;;;;4.53;3.35;;;;;;;;;;5025389;28;20144;-58
2021/05/04 01:32:15;;;;;;;6.82;3.30;;;;;;;;;;5023609;28;20147;-59
2021/05/04 01:34:43;;;;;;;7.93;3.30;;;;;;;;;;5025067;28;20068;-58
2021/05/04 01:37:10;;;;;;;3.83;3.13;;;;;;;;;;5025020;28;20050;-59
2021/05/04 01:39:44;;;;;;;5.22;3.20;;;;;;;;;;5024785;28;20712;-58
2021/05/04 01:42:12;;;;;;;4.50;3.00;;;;;;;;;;5024397;28;20148;-59
2021/05/04 01:44:39;;;;;;;4.55;3.40;;;;;;;;;;5025506;28;20041;-58
2021/05/04 01:47:07;;;;;;;5.07;3.22;;;;;;;;;;5025066;28;20128;-58
2021/05/04 01:49:36;;;;;;;4.47;3.00;;;;;;;;;;5025240;28;20060;-59
2021/05/04 01:52:04;;;;;;;5.32;3.13;;;;;;;;;;5023675;28;20533;-58
2021/05/04 01:54:31;;;;;;;6.47;2.85;;;;;;;;;;5020821;28;20041;-59
2021/05/04 01:57:00;;;;;;;4.28;2.88;;;;;;;;;;5023666;28;20150;-59
2021/05/04 01:59:28;;;;;;;8.65;2.85;;;;;;;;;;5024982;28;20222;-58
2021/05/04 02:01:55;;;;;;;3.80;2.92;;;;;;;;;;5025336;28;20429;-59
2021/05/04 02:04:24;;;;;;;4.55;2.95;;;;;;;;;;5025643;28;20521;-60
2021/05/04 02:06:52;;;;;;;4.93;3.35;;;;;;;;;;5027193;28;20047;-58
2021/05/04 02:09:19;;;;;;;4.45;2.97;;;;;;;;;;5023800;28;20046;-58
2021/05/04 02:11:47;;;;;;;5.30;2.83;;;;;;;;;;5022913;28;20155;-58
2021/05/04 02:14:15;;;;;;;5.60;3.35;;;;;;;;;;5024091;28;20045;-58
2021/05/04 02:16:42;;;;;;;5.18;3.30;;;;;;;;;;5020322;28;20081;-59
2021/05/04 02:19:09;;;;;;;5.32;2.97;;;;;;;;;;5023142;28;20362;-58
2021/05/04 02:21:37;;;;;;;7.72;3.00;;;;;;;;;;5023472;28;20096;-58
2021/05/04 02:24:05;;;;;;;4.93;3.20;;;;;;;;;;5024621;28;20681;-59
2021/05/04 02:26:32;;;;;;;5.47;3.10;;;;;;;;;;5017909;28;20374;-58
2021/05/04 02:29:00;;;;;;;3.17;2.35;;;;;;;;;;5025261;28;20136;-58
2021/05/04 02:31:28;;;;;;;9.57;2.63;;;;;;;;;;5025356;28;20118;-58
2021/05/04 02:33:55;;;;;;;8.07;3.03;;;;;;;;;;5024891;28;20561;-59
2021/05/04 02:36:23;;;;;;;5.28;3.08;;;;;;;;;;5024938;28;20053;-58
2021/05/04 02:38:50;;;;;;;4.80;2.78;;;;;;;;;;5023877;28;20088;-58
2021/05/04 02:41:17;;;;;;;4.18;3.03;;;;;;;;;;5024642;28;20051;-61
2021/05/04 02:43:45;;;;;;;3.85;2.85;;;;;;;;;;5024082;28;20468;-59
2021/05/04 02:46:12;;;;;;;4.45;2.97;;;;;;;;;;5023679;28;20133;-59
2021/05/04 02:48:43;;;;;;;5.28;2.97;;;;;;;;;;5024230;28;20041;-60
2021/05/04 02:51:11;;;;;;;4.00;3.22;;;;;;;;;;5025765;28;20060;-58
2021/05/04 02:53:39;;;;;;;4.32;2.83;;;;;;;;;;5023605;28;20053;-59
2021/05/04 02:56:07;;;;;;;5.00;3.17;;;;;;;;;;5018672;28;20473;-59
2021/05/04 02:58:35;;;;;;;8.10;3.13;;;;;;;;;;5023300;28;20045;-58
2021/05/04 03:01:02;;;;;;;3.97;2.80;;;;;;;;;;5024834;28;20498;-58
2021/05/04 03:03:30;;;;;;;6.15;2.88;;;;;;;;;;5024710;28;20075;-59
2021/05/04 03:05:58;;;;;;;5.80;2.85;;;;;;;;;;5023301;28;20340;-58
2021/05/04 03:08:25;;;;;;;5.82;2.95;;;;;;;;;;5023191;28;20046;-59
2021/05/04 03:10:53;;;;;;;3.92;2.70;;;;;;;;;;5022114;28;20174;-58
2021/05/04 03:13:23;;;;;;;5.32;2.65;;;;;;;;;;5022767;28;20665;-59
2021/05/04 03:15:51;;;;;;;5.15;2.65;;;;;;;;;;5022168;28;20808;-59
2021/05/04 03:18:18;;;;;;;5.50;2.80;;;;;;;;;;5023514;28;20103;-59
2021/05/04 03:20:46;;;;;;;4.90;2.55;;;;;;;;;;5024511;28;20041;-58
2021/05/04 03:23:14;;;;;;;4.00;2.75;;;;;;;;;;5028512;28;20519;-58
2021/05/04 03:25:42;;;;;;;15.23;5.35;;;;;;;;;;5024119;28;20195;-58
2021/05/04 03:28:10;;;;;;;4.85;3.10;;;;;;;;;;5017185;28;20050;-58
2021/05/04 03:30:37;;;;;;;3.97;2.90;;;;;;;;;;5021798;28;20638;-58
2021/05/04 03:33:05;;;;;;;3.97;2.80;;;;;;;;;;5023937;28;20060;-58
2021/05/04 03:35:32;;;;;;;5.72;2.72;;;;;;;;;;5023567;28;20053;-58
2021/05/04 03:38:00;;;;;;;6.22;3.00;;;;;;;;;;5022269;28;20612;-59
2021/05/04 03:40:29;;;;;;;9.95;2.90;;;;;;;;;;5023912;28;21234;-58
2021/05/04 03:42:56;;;;;;;5.07;2.70;;;;;;;;;;5023515;28;20069;-58
2021/05/04 03:45:24;;;;;;;5.30;2.83;;;;;;;;;;5027999;28;20275;-59
2021/05/04 03:47:52;;;;;;;6.10;3.22;;;;;;;;;;5023350;28;20052;-59
2021/05/04 03:50:22;;;;;;;7.90;4.22;;;;;;;;;;5023766;28;20076;-58
2021/05/04 03:52:50;;;;;;;5.10;2.97;;;;;;;;;;5023884;28;20111;-58
2021/05/04 03:55:17;;;;;;;5.38;2.88;;;;;;;;;;5024694;28;20551;-58
2021/05/04 03:57:46;;;;;;;5.18;2.90;;;;;;;;;;5017037;28;20196;-58
2021/05/04 04:00:14;;;;;;;6.90;3.10;;;;;;;;;;5023818;28;20049;-58
2021/05/04 04:02:41;;;;;;;7.38;2.80;;;;;;;;;;5024926;28;20057;-58
2021/05/04 04:05:09;;;;;;;7.07;3.05;;;;;;;;;;5023386;28;20104;-58
2021/05/04 04:07:37;;;;;;;4.85;2.70;;;;;;;;;;5022158;28;20045;-59
2021/05/04 04:10:05;;;;;;;4.68;2.92;;;;;;;;;;5023693;28;20126;-58
2021/05/04 04:12:32;;;;;;;6.57;2.90;;;;;;;;;;5022863;28;20049;-58
2021/05/04 04:15:01;;;;;;;4.72;2.60;;;;;;;;;;5022000;28;20784;-58
2021/05/04 04:17:28;;;;;;;4.40;2.75;;;;;;;;;;5021233;28;20050;-58
2021/05/04 04:19:56;;;;;;;3.95;2.65;;;;;;;;;;5023443;28;20045;-58
2021/05/04 04:22:24;;;;;;;4.05;2.70;;;;;;;;;;5024007;28;20122;-58
2021/05/04 04:24:54;;;;;;;9.15;3.30;;;;;;;;;;5024937;28;20072;-58
2021/05/04 04:27:21;;;;;;;5.03;2.75;;;;;;;;;;5025047;28;20562;-60
2021/05/04 04:29:50;;;;;;;4.30;2.72;;;;;;;;;;5021239;28;20057;-60
2021/05/04 04:32:18;;;;;;;5.78;3.05;;;;;;;;;;5023341;28;20069;-59
2021/05/04 04:34:46;;;;;;;5.65;2.60;;;;;;;;;;5022862;28;20387;-59
2021/05/04 04:37:14;;;;;;;6.65;2.72;;;;;;;;;;5020056;28;20672;-59
2021/05/04 04:39:42;;;;;;;3.45;2.25;;;;;;;;;;5030029;28;20523;-60
2021/05/04 04:42:10;;;;;;;7.30;3.05;;;;;;;;;;5030555;28;20164;-59
2021/05/04 04:44:37;;;;;;;10.00;3.10;;;;;;;;;;5030135;28;20054;-59
2021/05/04 04:47:06;;;;;;;8.93;3.05;;;;;;;;;;5030121;28;20057;-60
2021/05/04 04:49:35;;;;;;;5.97;3.13;;;;;;;;;;5030190;28;20041;-60
2021/05/04 04:52:02;;;;;;;8.88;3.38;;;;;;;;;;5031072;28;20084;-59
2021/05/04 04:54:31;;;;;;;5.70;3.33;;;;;;;;;;5029533;28;20140;-59
2021/05/04 04:56:58;;;;;;;8.57;2.80;;;;;;;;;;5021967;28;20472;-59
2021/05/04 04:59:26;;;;;;;5.32;2.88;;;;;;;;;;5021829;28;20049;-59
2021/05/04 05:01:54;;;;;;;5.07;2.95;;;;;;;;;;5028459;28;20065;-59
2021/05/04 05:04:21;;;;;;;6.22;2.60;;;;;;;;;;5025335;28;20506;-60
2021/05/04 05:06:50;;;;;;;7.30;3.13;;;;;;;;;;5027751;28;20551;-58
2021/05/04 05:09:18;;;;;;;9.18;3.13;;;;;;;;;;5020880;28;20057;-58
2021/05/04 05:11:45;;;;;;;4.95;3.03;;;;;;;;;;5022603;28;20064;-58
2021/05/04 05:14:13;;;;;;;5.32;3.15;;;;;;;;;;5024577;28;20628;-59
2021/05/04 05:16:41;;;;;;;5.95;2.75;;;;;;;;;;5024008;28;20053;-59
2021/05/04 05:19:09;;;;;;;6.35;3.00;;;;;;;;;;5021380;28;20059;-58
2021/05/04 05:21:38;;;;;;;6.93;3.10;;;;;;;;;;5017913;28;20048;-59
2021/05/04 05:24:08;;;;;;;4.70;2.78;;;;;;;;;;5013180;28;20046;-59
2021/05/04 05:26:36;;;;;;;6.07;3.00;;;;;;;;;;5013502;28;20112;-59
2021/05/04 05:29:06;;;;;;;6.45;2.80;;;;;;;;;;5027402;28;20439;-59
2021/05/04 05:31:35;;;;;;;5.38;2.55;;;;;;;;;;5027755;28;20060;-59
2021/05/04 05:34:02;;;;;;;6.82;2.85;;;;;;;;;;5019446;28;20505;-59
2021/05/04 05:36:31;;;;;;;7.30;3.10;;;;;;;;;;5024717;28;20045;-59
2021/05/04 05:38:59;;;;;;;7.18;2.88;;;;;;;;;;5025091;28;20119;-59
2021/05/04 05:41:27;;;;;;;5.35;2.67;;;;;;;;;;5023145;28;20053;-59
2021/05/04 05:43:55;;;;;;;10.57;2.95;;;;;;;;;;5021119;28;20115;-59
2021/05/04 05:46:22;;;;;;;6.05;2.60;;;;;;;;;;5024964;28;20460;-60
2021/05/04 05:48:51;;;;;;;4.95;2.63;;;;;;;;;;5021001;28;20420;-58
2021/05/04 05:51:20;;;;;;;4.43;2.63;;;;;;;;;;5029466;28;20080;-60
2021/05/04 05:53:49;;;;;;;3.22;2.35;;;;;;;;;;5019727;28;20046;-58
2021/05/04 05:56:16;;;;;;;6.25;2.45;;;;;;;;;;5019936;28;20804;-58
2021/05/04 05:58:44;;;;;;;4.28;2.38;;;;;;;;;;5021778;28;20077;-59
2021/05/04 06:01:12;;;;;;;2.90;2.38;;;;;;;;;;5018617;28;20081;-59
2021/05/04 06:03:39;;;;;;;3.40;2.47;;;;;;;;;;5022993;28;20057;-60
2021/05/04 06:06:07;;;;;;;4.00;2.58;;;;;;;;;;5028661;28;20055;-59
2021/05/04 06:08:34;;;;;;;2.53;1.80;;;;;;;;;;5023559;28;20088;-59
2021/05/04 06:11:02;;;;;;;4.75;2.33;;;;;;;;;;5027585;28;20144;-59
2021/05/04 06:13:29;;;;;;;5.50;2.30;;;;;;;;;;5026570;28;20293;-59
2021/05/04 06:15:58;;;;;;;6.13;2.67;;;;;;;;;;5028648;28;20053;-59
2021/05/04 06:18:25;;;;;;;3.08;2.28;;;;;;;;;;5025930;28;20436;-58
2021/05/04 06:20:53;;;;;;;3.72;2.05;;;;;;;;;;5032416;28;20041;-60
2021/05/04 06:23:21;;;;;;;9.18;2.50;;;;;;;;;;5027061;28;20053;-59
2021/05/04 06:25:49;;;;;;;3.75;2.17;;;;;;;;;;5026360;28;20107;-58
2021/05/04 06:28:17;;;;;;;6.88;3.00;;;;;;;;;;5021978;28;20041;-59
2021/05/04 06:30:45;;;;;;;4.28;2.47;;;;;;;;;;5028116;28;21556;-60
2021/05/04 06:33:14;;;;;;;5.65;2.30;;;;;;;;;;5028692;28;20057;-59
2021/05/04 06:35:44;;;;;;;4.53;2.20;;;;;;;;;;5026850;28;20107;-59
2021/05/04 06:38:13;;;;;;;4.30;2.47;;;;;;;;;;5030085;28;20061;-59
2021/05/04 06:40:42;;;;;;;4.03;2.33;;;;;;;;;;5033804;28;20041;-58
2021/05/04 06:43:11;;;;;;;4.65;2.10;;;;;;;;;;5032030;28;20045;-60
2021/05/04 06:45:41;;;;;;;5.03;2.13;;;;;;;;;;5030736;28;20060;-60
2021/05/04 06:48:11;;;;;;;6.88;2.05;;;;;;;;;;5029462;28;20071;-59
2021/05/04 06:50:45;;;;;;;4.82;2.20;;;;;;;;;;5023500;28;20124;-58
2021/05/04 06:53:16;;;;;;;5.82;2.50;;;;;;;;;;5030727;28;20536;-58
2021/05/04 06:55:46;;;;;;;6.72;2.10;;;;;;;;;;5028259;28;20053;-59
2021/05/04 06:58:14;;;;;;;4.45;2.10;;;;;;;;;;5029343;28;20053;-59
2021/05/04 07:00:42;;;;;;;3.45;2.30;;;;;;;;;;5039290;28;20045;-59
2021/05/04 07:03:10;;;;;;;6.90;2.15;;;;;;;;;;5031459;28;20076;-59
2021/05/04 07:05:38;;;;;;;6.53;2.65;;;;;;;;;;5030348;28;20511;-59
2021/05/04 07:08:08;;;;;;;5.43;2.40;;;;;;;;;;5027478;28;20485;-60
2021/05/04 07:10:37;;;;;;;3.45;1.90;;;;;;;;;;5030755;28;20103;-62
2021/05/04 07:13:05;;;;;;;2.85;1.98;;;;;;;;;;5031646;28;20045;-60
2021/05/04 07:15:34;;;;;;;5.40;2.53;;;;;;;;;;5029706;28;20046;-60
2021/05/04 07:18:01;;;;;;;4.40;2.22;;;;;;;;;;5020187;28;20081;-60
2021/05/04 07:20:29;;;;;;;5.20;2.60;;;;;;;;;;5023494;28;20054;-59
2021/05/04 07:22:58;;;;;;;7.47;2.00;;;;;;;;;;5028986;28;20134;-64
2021/05/04 07:25:27;;;;;;;2.50;1.88;;;;;;;;;;5030334;28;20420;-60
2021/05/04 07:27:55;;;;;;;3.25;2.08;;;;;;;;;;5028075;28;20052;-60
2021/05/04 07:30:24;;;;;;;5.22;2.60;;;;;;;;;;5024170;28;20460;-59
2021/05/04 07:32:53;;;;;;;4.65;2.10;;;;;;;;;;5029182;28;20472;-59
2021/05/04 07:35:22;;;;;;;3.25;1.98;;;;;;;;;;5029465;28;20532;-59
2021/05/04 07:37:50;;;;;;;2.85;2.25;;;;;;;;;;5028698;28;20529;-60
2021/05/04 07:40:18;;;;;;;4.53;2.25;;;;;;;;;;5029207;28;20095;-60
2021/05/04 07:42:48;;;;;;;4.55;2.30;;;;;;;;;;5027617;28;20128;-59
2021/05/04 07:45:16;;;;;;;3.55;2.42;;;;;;;;;;5027643;28;20315;-59
2021/05/04 07:47:49;;;;;;;4.35;2.15;;;;;;;;;;5031032;28;20100;-60
2021/05/04 07:50:25;;;;;;;4.00;2.15;;;;;;;;;;5031714;28;20096;-59
2021/05/04 07:52:58;;;;;;;3.58;2.13;;;;;;;;;;5027428;28;20136;-60
2021/05/04 07:55:25;;;;;;;5.40;2.28;;;;;;;;;;5028655;28;20476;-59
2021/05/04 07:57:56;;;;;;;3.55;2.13;;;;;;;;;;5026926;28;20068;-60
2021/05/04 08:00:24;;;;;;;5.25;2.25;;;;;;;;;;5032006;28;20576;-59
2021/05/04 08:02:59;;;;;;;5.85;2.40;;;;;;;;;;5026419;28;20138;-59
2021/05/04 08:05:28;;;;;;;4.18;2.30;;;;;;;;;;5022125;28;20053;-60
2021/05/04 08:07:57;;;;;;;3.80;2.35;;;;;;;;;;5019232;28;20068;-59
2021/05/04 08:10:25;;;;;;;7.28;2.10;;;;;;;;;;5029118;28;20050;-60
2021/05/04 08:12:54;;;;;;;3.25;2.17;;;;;;;;;;5026128;28;20041;-60
2021/05/04 08:15:27;;;;;;;5.18;2.25;;;;;;;;;;5025367;28;20049;-59
2021/05/04 08:18:04;;;;;;;5.10;2.72;;;;;;;;;;5020095;28;20541;-60
2021/05/04 08:20:33;;;;;;;5.07;2.40;;;;;;;;;;5031844;28;20057;-60
2021/05/04 08:23:02;;;;;;;4.93;2.67;;;;;;;;;;5016495;28;20104;-60
2021/05/04 08:25:30;;;;;;;2.97;2.15;;;;;;;;;;5021527;28;20104;-60
2021/05/04 08:27:59;;;;;;;4.63;2.40;;;;;;;;;;5027746;28;20068;-59
2021/05/04 08:30:29;;;;;;;4.85;2.10;;;;;;;;;;5036821;28;20069;-58
2021/05/04 08:32:57;;;;;;;6.78;2.20;;;;;;;;;;5032672;28;20053;-59
2021/05/04 08:35:26;;;;;;;2.58;1.98;;;;;;;;;;5028634;28;20056;-59
2021/05/04 08:37:56;;;;;;;4.35;2.63;;;;;;;;;;5024715;28;20083;-59
2021/05/04 08:40:25;;;;;;;3.45;2.08;;;;;;;;;;5026666;28;20037;-60
2021/05/04 08:42:53;;;;;;;3.47;1.98;;;;;;;;;;5022819;28;20046;-60
2021/05/04 08:45:22;;;;;;;5.68;2.58;;;;;;;;;;5019565;28;20052;-59
2021/05/04 08:47:51;;;;;;;3.67;2.15;;;;;;;;;;5022586;28;20048;-60
2021/05/04 08:50:21;;;;;;;3.25;1.95;;;;;;;;;;5024646;28;20049;-60
2021/05/04 08:52:49;;;;;;;4.40;2.10;;;;;;;;;;5027463;28;20046;-60
2021/05/04 08:55:17;;;;;;;2.50;1.70;;;;;;;;;;5026687;28;20095;-60
2021/05/04 08:57:46;;;;;;;3.33;1.80;;;;;;;;;;5021899;28;20080;-60
2021/05/04 09:00:15;;;;;;;2.58;1.60;;;;;;;;;;5022736;28;20049;-60
2021/05/04 09:03:02;;;;;;;2.50;1.90;;;;;;;;;;5026187;28;20045;-60
2021/05/04 09:05:37;;;;;;;3.08;1.92;;;;;;;;;;5022987;28;20057;-61
2021/05/04 09:08:12;;;;;;;2.83;1.90;;;;;;;;;;5024532;28;20037;-60
2021/05/04 09:10:47;;;;;;;2.28;1.70;;;;;;;;;;5028718;28;20056;-60
2021/05/04 09:13:26;;;;;;;5.65;1.75;;;;;;;;;;5029404;28;20048;-60
2021/05/04 09:21:33;;;;;;;2.60;1.75;;;;;;;;;;5025862;28;20145;-59
2021/05/04 09:24:21;;;;;;;2.25;1.52;;;;;;;;;;5026685;28;20046;-59
2021/05/04 09:26:49;;;;;;;6.45;1.80;;;;;;;;;;5030825;28;20120;-59
2021/05/04 09:29:17;;;;;;;6.03;1.90;;;;;;;;;;5018482;28;20510;-60
2021/05/04 09:31:44;;;;;;;3.67;2.25;;;;;;;;;;5035052;28;20255;-60
2021/05/04 09:34:14;;;;;;;3.75;2.00;;;;;;;;;;5030917;28;20250;-59
2021/05/04 09:36:46;;;;;;;2.42;1.80;;;;;;;;;;5030878;28;20038;-59
2021/05/04 09:39:25;;;;;;;3.60;1.88;;;;;;;;;;5030143;28;20057;-59
2021/05/04 09:41:53;;;;;;;3.85;1.90;;;;;;;;;;5029707;28;20041;-59
2021/05/04 09:44:36;;;;;;;3.72;1.70;;;;;;;;;;5027793;28;20045;-59
2021/05/04 09:47:05;;;;;;;5.90;1.80;;;;;;;;;;5028333;28;20488;-60
2021/05/04 09:49:34;;;;;;;3.80;2.25;;;;;;;;;;5030186;28;20048;-58
2021/05/04 09:52:33;;;;;;;5.40;2.15;;;;;;;;;;5031926;28;20084;-60
2021/05/04 09:55:02;;;;;;;7.00;2.10;;;;;;;;;;5016794;28;20052;-59
2021/05/04 09:57:31;;;;;;;3.08;1.75;;;;;;;;;;5030944;28;20053;-58
2021/05/04 09:59:59;;;;;;;6.75;2.35;;;;;;;;;;5027439;28;20330;-59
2021/05/04 10:02:27;;;;;;;4.57;1.90;;;;;;;;;;5032030;28;20468;-59
2021/05/04 10:04:56;;;;;;;6.35;2.00;;;;;;;;;;5028566;28;20049;-60
2021/05/04 10:07:24;;;;;;;8.00;2.05;;;;;;;;;;5026648;28;20049;-61
2021/05/04 10:09:51;;;;;;;6.75;2.22;;;;;;;;;;5028105;28;20056;-59
2021/05/04 10:12:20;;;;;;;5.25;1.85;;;;;;;;;;5030246;28;20100;-59
2021/05/04 10:14:51;;;;;;;6.47;2.05;;;;;;;;;;5024063;28;20786;-60
2021/05/04 10:17:19;;;;;;;7.30;1.58;;;;;;;;;;5030673;28;20045;-60
2021/05/04 10:19:47;;;;;;;4.38;1.67;;;;;;;;;;5022965;28;20053;-60
2021/05/04 10:22:17;;;;;;;2.20;1.67;;;;;;;;;;5029562;28;20063;-60
2021/05/04 10:24:45;;;;;;;4.32;1.67;;;;;;;;;;5030068;28;20045;-60
2021/05/04 10:27:13;;;;;;;4.18;1.85;;;;;;;;;;5030180;28;20048;-60
2021/05/04 10:29:41;;;;;;;3.78;1.52;;;;;;;;;;5030659;28;20084;-60
2021/05/04 10:32:13;;;;;;;5.43;1.60;;;;;;;;;;5030628;28;20099;-60
2021/05/04 10:34:42;;;;;;;1.70;1.40;;;;;;;;;;5027751;28;20414;-60
2021/05/04 10:37:27;;;;;;;3.22;1.65;;;;;;;;;;5032889;28;20048;-59
2021/05/04 10:39:57;;;;;;;3.35;1.80;;;;;;;;;;5021221;28;20065;-64
2021/05/04 10:42:33;;;;;;;3.97;1.75;;;;;;;;;;5030596;28;20079;-63
2021/05/04 10:45:09;;;;;;;5.28;1.92;;;;;;;;;;5031029;28;20066;-64
2021/05/04 10:47:50;;;;;;;3.08;1.70;;;;;;;;;;5030842;28;20144;-63
2021/05/04 10:50:23;;;;;;;5.30;1.58;;;;;;;;;;5024612;28;20045;-64
2021/05/04 10:53:08;;;;;;;2.58;1.42;;;;;;;;;;5027890;28;20049;-65
2021/05/04 10:55:56;;;;;;;3.03;1.67;;;;;;;;;;5026763;28;20469;-68
2021/05/04 10:58:26;;;;;;;3.25;1.50;;;;;;;;;;5028580;28;20500;-64
2021/05/04 11:00:56;;;;;;;3.42;1.80;;;;;;;;;;5023342;28;20049;-65
2021/05/04 11:03:42;;;;;;;3.30;1.48;;;;;;;;;;5029009;28;20513;-67
2021/05/04 11:06:11;;;;;;;3.80;1.50;;;;;;;;;;5027945;28;20055;-64
2021/05/04 11:08:57;;;;;;;3.45;1.73;;;;;;;;;;5026361;28;20056;-68
2021/05/04 11:11:26;;;;;;;2.63;1.50;;;;;;;;;;5035567;28;20049;-65
2021/05/04 11:13:57;;;;;;;4.00;1.75;;;;;;;;;;5030287;28;20041;-67
2021/05/04 11:16:32;;;;;;;9.70;1.70;;;;;;;;;;5029798;28;20065;-65
2021/05/04 11:19:02;;;;;;;7.13;1.38;;;;;;;;;;5030825;28;20057;-67
2021/05/04 11:21:38;;;;;;;3.90;1.77;;;;;;;;;;5026001;28;20052;-63
2021/05/04 11:24:08;;;;;;;3.65;1.55;;;;;;;;;;5028463;28;20053;-64
2021/05/04 11:26:49;;;;;;;4.60;1.90;;;;;;;;;;5024495;28;20049;-63
2021/05/04 11:29:19;;;;;;;5.90;1.30;;;;;;;;;;5030397;28;20045;-62
2021/05/04 11:31:47;;;;;;;6.70;1.58;;;;;;;;;;5029575;28;20080;-63
2021/05/04 11:34:37;;;;;;;3.25;1.30;;;;;;;;;;5029705;28;20073;-62
2021/05/04 11:37:06;;;;;;;4.63;1.55;;;;;;;;;;5032298;28;20048;-60
2021/05/04 11:39:34;;;;;;;1.67;1.13;;;;;;;;;;5028557;28;20489;-60
2021/05/04 11:42:03;;;;;;;3.83;1.80;;;;;;;;;;5030690;28;20064;-60
2021/05/04 11:44:32;;;;;;;3.63;1.25;;;;;;;;;;5026194;28;20215;-60
2021/05/04 11:47:15;;;;;;;4.30;1.70;;;;;;;;;;5026500;28;20057;-59
2021/05/04 11:49:43;;;;;;;2.40;1.63;;;;;;;;;;5029141;28;20065;-61
2021/05/04 11:52:12;;;;;;;2.80;1.38;;;;;;;;;;5028942;28;20046;-60
2021/05/04 11:54:46;;;;;;;2.63;1.45;;;;;;;;;;5029957;28;20050;-60
2021/05/04 11:57:14;;;;;;;1.52;1.42;;;;;;;;;;5030029;28;20549;-61
2021/05/04 11:59:56;;;;;;;3.22;1.35;;;;;;;;;;5022261;28;20493;-59
2021/05/04 12:02:31;;;;;;;4.35;1.50;;;;;;;;;;5030093;28;20073;-60
2021/05/04 12:05:04;;;;;;;2.65;1.35;;;;;;;;;;1423980;28;10022841;-60
2021/05/04 12:07:45;;;;;;;4.55;1.33;;;;;;;;;;3986101;28;10001424;-61
2021/05/04 12:10:24;;;;;;;10.02;1.83;;;;;;;;;;5031448;28;20049;-60
2021/05/04 12:12:54;;;;;;;3.25;1.83;;;;;;;;;;5033594;28;20052;-60
2021/05/04 12:15:32;;;;;;;4.38;1.52;;;;;;;;;;5034234;28;20077;-60
2021/05/04 12:18:08;;;;;;;2.70;1.80;;;;;;;;;;5013590;28;20462;-61
2021/05/04 12:20:39;;;;;;;3.45;1.55;;;;;;;;;;5023968;28;20386;-62
2021/05/04 12:23:07;;;;;;;2.35;1.50;;;;;;;;;;5029591;28;20539;-60
2021/05/04 12:25:48;;;;;;;5.75;1.30;;;;;;;;;;5029772;28;20050;-61
2021/05/04 12:28:17;;;;;;;3.00;1.73;;;;;;;;;;5031388;28;20061;-61
2021/05/04 12:30:48;;;;;;;2.00;1.58;;;;;;;;;;5027989;28;20119;-61
2021/05/04 12:33:19;;;;;;;4.32;1.90;;;;;;;;;;5026424;28;20053;-62
2021/05/04 12:35:58;;;;;;;4.85;1.48;;;;;;;;;;5033701;28;20095;-61
2021/05/04 12:38:28;;;;;;;3.17;1.60;;;;;;;;;;5036032;28;20103;-61
2021/05/04 12:40:59;;;;;;;2.83;2.03;;;;;;;;;;5021919;28;20583;-60
2021/05/04 12:43:29;;;;;;;7.55;1.80;;;;;;;;;;5034714;28;20507;-60
2021/05/04 12:46:20;;;;;;;2.30;1.55;;;;;;;;;;5022576;28;20060;-60
2021/05/04 12:48:53;;;;;;;3.10;1.55;;;;;;;;;;5026742;28;20053;-60
2021/05/04 12:51:26;;;;;;;3.55;1.63;;;;;;;;;;5025141;28;20159;-59
2021/05/04 12:54:04;;;;;;;3.28;1.80;;;;;;;;;;5025123;28;20053;-61
2021/05/04 12:56:32;;;;;;;4.63;1.77;;;;;;;;;;5029792;28;20404;-60
2021/05/04 12:59:01;;;;;;;4.82;1.70;;;;;;;;;;5028779;28;20533;-60
2021/05/04 13:01:33;;;;;;;5.97;2.00;;;;;;;;;;5029277;28;20174;-61
2021/05/04 13:04:05;;;;;;;2.92;1.70;;;;;;;;;;5034190;28;20055;-61
2021/05/04 13:06:41;;;;;;;3.42;1.50;;;;;;;;;;5031679;28;20503;-60
2021/05/04 13:09:16;;;;;;;2.85;1.52;;;;;;;;;;5032928;28;20097;-62
2021/05/04 13:11:52;;;;;;;3.15;1.60;;;;;;;;;;5030864;28;20277;-60
2021/05/04 13:14:53;;;;;;;3.83;1.70;;;;;;;;;;5032471;28;20049;-60
2021/05/04 13:20:59;;;;;;;4.38;1.63;;;;;;;;;;5025294;28;20072;-60
2021/05/04 13:31:45;;;;;;;3.63;1.60;;;;;;;;;;5025376;28;20048;-60
2021/05/04 13:34:21;;;;;;;4.35;1.63;;;;;;;;;;5028787;28;20505;-61
2021/05/04 13:36:49;;;;;;;;;;;;;;;;;;5030963;28;20061;-61
2021/05/04 13:39:42;;;;;;;5.38;1.70;;;;;;;;;;5030354;28;19929;-60
2021/05/04 13:48:12;;;;;;;5.10;1.50;;;;;;;;;;5028478;28;20523;-60
2021/05/04 13:50:40;;;;;;;4.18;1.90;;;;;;;;;;5021497;28;20555;-60
2021/05/04 13:53:08;;;;;;;2.78;1.38;;;;;;;;;;5037051;28;20053;-61
2021/05/04 13:55:37;;;;;;;4.38;1.90;;;;;;;;;;5031715;28;20045;-61
2021/05/04 13:58:06;;;;;;;2.00;1.52;;;;;;;;;;5026063;28;20168;-61
2021/05/04 14:00:37;;;;;;;2.05;1.60;;;;;;;;;;5030464;28;20121;-61
2021/05/04 14:03:21;;;;;;;3.75;1.40;;;;;;;;;;5029230;28;20050;-61
2021/05/04 14:08:54;;;;;;;3.67;1.65;;;;;;;;;;5019866;28;20084;-61
2021/05/04 14:28:25;;;;;;;3.47;1.63;;;;;;;;;;5024758;28;20049;-61
2021/05/04 14:30:53;;;;;;;2.30;1.50;;;;;;;;;;5029813;28;20097;-62
2021/05/04 14:33:22;;;;;;;3.38;1.85;;;;;;;;;;5028234;28;20049;-60
2021/05/04 14:35:53;;;;;;;3.45;1.50;;;;;;;;;;5029644;28;20052;-61
2021/05/04 14:38:29;;;;;;;3.53;1.67;;;;;;;;;;5027011;28;20261;-61
2021/05/04 14:41:17;;;;;;;3.05;1.60;;;;;;;;;;5035428;28;20061;-61
2021/05/04 14:57:41;;;;;;;3.65;1.63;;;;;;;;;;5028645;28;20045;-60
2021/05/04 15:00:34;;;;;;;2.55;1.42;;;;;;;;;;5031274;28;20092;-61
2021/05/04 15:03:03;;;;;;;2.75;1.70;;;;;;;;;;5033196;28;20049;-61
2021/05/04 15:05:32;;;;;;;6.70;2.00;;;;;;;;;;5037082;28;20053;-60
2021/05/04 15:07:59;;;;;;;5.10;1.95;;;;;;;;;;5028543;28;20060;-60
2021/05/04 15:10:27;;;;;;;4.03;1.80;;;;;;;;;;5029035;28;20080;-60
2021/05/04 15:13:01;;;;;;;2.67;1.55;;;;;;;;;;5029855;28;20513;-60
2021/05/04 15:15:39;;;;;;;3.08;1.55;;;;;;;;;;5019375;28;20075;-60
2021/05/04 15:18:12;;;;;;;2.05;1.58;;;;;;;;;;5029379;28;20045;-60
2021/05/04 15:23:25;;;;;;;2.55;1.40;;;;;;;;;;5027403;28;20053;-62
2021/05/04 15:25:55;;;;;;;3.60;1.65;;;;;;;;;;5028477;28;20053;-60
2021/05/04 15:28:23;;;;;;;3.13;1.67;;;;;;;;;;5021856;28;20045;-61
2021/05/04 15:30:55;;;;;;;5.22;1.48;;;;;;;;;;5027810;28;20041;-60
2021/05/04 15:33:25;;;;;;;3.53;1.60;;;;;;;;;;5031522;28;20058;-59
2021/05/04 15:35:54;;;;;;;2.88;1.90;;;;;;;;;;5027216;28;20057;-61
2021/05/04 15:38:22;;;;;;;4.22;1.45;;;;;;;;;;5028468;28;20139;-60
2021/05/04 15:40:50;;;;;;;2.22;1.52;;;;;;;;;;5025993;28;20083;-60
2021/05/04 15:43:18;;;;;;;4.80;1.70;;;;;;;;;;5023937;28;20045;-61
2021/05/04 15:46:04;;;;;;;2.88;1.65;;;;;;;;;;5027646;28;20041;-61
2021/05/04 15:48:37;;;;;;;2.97;1.75;;;;;;;;;;5024808;28;20048;-61
2021/05/04 15:51:19;;;;;;;3.22;1.67;;;;;;;;;;5027296;28;20053;-61
2021/05/04 15:54:03;;;;;;;4.82;1.98;;;;;;;;;;5028076;28;20045;-61
2021/05/04 16:07:54;;;;;;;3.95;1.88;;;;;;;;;;5025952;28;20053;-61
2021/05/04 16:10:22;;;;;;;3.50;1.70;;;;;;;;;;5026796;28;20052;-62
2021/05/04 16:12:50;;;;;;;3.03;1.63;;;;;;;;;;5026433;28;20144;-60